Hauptseite
METAR-TAF:

METAR-TAF

Flughäfen :

Militärflugplatz Cazaux

Cazaux, Frankreich

Breite: 44-32N, Länge: 001-08W, Höhe: 25 m

Beobachtung

Neuester Wetterbericht von vor 36 Minuten, um 01:00 UTC
Wind 3 kt aus Nordwest
Temperatur 13°C
Luftfeuchtigkeit 82%
Luftdruck 1019 hPa
Sichtweite 10 km oder mehr

METAR: LFBC 170100Z AUTO 32003KT 9999 // NSC 13/10 Q1019

Zeit: 02:36 (01:36 UTC)

Prognose

Neuester Wetterbericht von vor 5 Stunden und 36 Minuten, um 20:00 UTC
Gültige Prognose vom 15 um 21 UTC bis 16 um 21 UTC
Wind 3 kt aus Süd
Sichtweite 10 km oder mehr
keine Wolken unter 1500 m und keine Kumulonimbus oder Gewitterwolken
Übergehend zu
vom 16 um 10 UTC bis 16 um 12 UTC
Wind 15 kt aus Süd/Südwest, Böen bis zu 25 kt
Übergehend zu
vom 16 um 14 UTC bis 16 um 16 UTC
Wind 10 kt aus Südwest

TAF: LFBC 152000Z 1521/1621 17003KT CAVOK BECMG 1610/1612 21015G25KT BECMG 1614/1616 23010KT

Wetterbeobachtungen und Prognosen von mehr als 4000 Flughäfen (METAR und TAF Bericht).

Die verfügbaren Stationen werden durch gelbe und rote Markierungen auf der Karte dargestellt.

Führen Sie die Maus auf sie, um den Namen der Station zu sehen.

Darauf klicken, um die Beobachtung von Wetterbeobachtungen und Prognosen zu sehen.

Um die Karte zu ändern : klicken Sie auf den grünen Tasten mit einem schwarzen Kreuz Zum Vergrößern, auf den grünen Button mit einem Gedankenstrich zu verkleinern, oder auf die grünen Pfeile für benachbarte Karten.


METAR-TAF: